sensor_id;sensor_type;location;lat;lon;timestamp;pressure;altitude;pressure_sealevel;temperature;humidity
54172;BME280;40076;52.354;4.970;2022-09-09T00:00:47;100715.75;;;17.58;83.81
54172;BME280;40076;52.354;4.970;2022-09-09T00:03:17;100718.84;;;17.57;83.81
54172;BME280;40076;52.354;4.970;2022-09-09T00:08:20;100718.84;;;17.57;84.04
54172;BME280;40076;52.354;4.970;2022-09-09T00:10:53;100705.16;;;17.53;84.04
54172;BME280;40076;52.354;4.970;2022-09-09T00:13:25;100703.16;;;17.50;84.34
54172;BME280;40076;52.354;4.970;2022-09-09T00:16:17;100702.34;;;17.50;84.23
54172;BME280;40076;52.354;4.970;2022-09-09T00:21:39;100700.78;;;17.49;84.40
54172;BME280;40076;52.354;4.970;2022-09-09T00:24:16;100698.78;;;17.46;84.68
54172;BME280;40076;52.354;4.970;2022-09-09T00:26:57;100693.69;;;17.44;84.68
54172;BME280;40076;52.354;4.970;2022-09-09T00:29:51;100697.59;;;17.43;84.82
54172;BME280;40076;52.354;4.970;2022-09-09T00:32:19;100698.31;;;17.40;84.53
54172;BME280;40076;52.354;4.970;2022-09-09T00:34:52;100695.47;;;17.33;84.95
54172;BME280;40076;52.354;4.970;2022-09-09T00:37:19;100699.34;;;17.32;85.23
54172;BME280;40076;52.354;4.970;2022-09-09T00:39:47;100704.06;;;17.31;85.58
54172;BME280;40076;52.354;4.970;2022-09-09T00:42:19;100706.72;;;17.28;85.81
54172;BME280;40076;52.354;4.970;2022-09-09T00:47:46;100696.16;;;17.26;86.14
54172;BME280;40076;52.354;4.970;2022-09-09T00:50:35;100701.19;;;17.24;86.44
54172;BME280;40076;52.354;4.970;2022-09-09T00:56:00;100705.47;;;17.22;86.88
54172;BME280;40076;52.354;4.970;2022-09-09T00:58:31;100700.34;;;17.20;86.70
54172;BME280;40076;52.354;4.970;2022-09-09T01:01:11;100701.88;;;17.18;87.28
54172;BME280;40076;52.354;4.970;2022-09-09T01:03:46;100698.78;;;17.19;87.37
54172;BME280;40076;52.354;4.970;2022-09-09T01:12:06;100692.94;;;17.21;87.45
54172;BME280;40076;52.354;4.970;2022-09-09T01:17:04;100692.53;;;17.19;87.69
54172;BME280;40076;52.354;4.970;2022-09-09T01:22:36;100686.53;;;17.10;88.49
54172;BME280;40076;52.354;4.970;2022-09-09T01:27:38;100704.09;;;17.09;88.22
54172;BME280;40076;52.354;4.970;2022-09-09T01:30:10;100700.13;;;17.06;88.75
54172;BME280;40076;52.354;4.970;2022-09-09T01:32:42;100695.38;;;17.03;88.81
54172;BME280;40076;52.354;4.970;2022-09-09T01:35:14;100693.44;;;17.04;89.03
54172;BME280;40076;52.354;4.970;2022-09-09T01:37:41;100692.66;;;17.03;88.95
54172;BME280;40076;52.354;4.970;2022-09-09T01:40:07;100688.34;;;17.02;89.03
54172;BME280;40076;52.354;4.970;2022-09-09T01:42:33;100680.56;;;17.01;89.28
54172;BME280;40076;52.354;4.970;2022-09-09T01:44:58;100685.25;;;17.04;89.37
54172;BME280;40076;52.354;4.970;2022-09-09T01:47:24;100688.34;;;17.02;89.42
54172;BME280;40076;52.354;4.970;2022-09-09T01:49:50;100691.47;;;17.01;89.43
54172;BME280;40076;52.354;4.970;2022-09-09T01:52:15;100686.72;;;16.97;89.72
54172;BME280;40076;52.354;4.970;2022-09-09T01:54:40;100684.72;;;16.94;89.64
54172;BME280;40076;52.354;4.970;2022-09-09T01:57:15;100677.28;;;16.91;89.82
54172;BME280;40076;52.354;4.970;2022-09-09T02:05:39;100674.13;;;16.89;90.21
54172;BME280;40076;52.354;4.970;2022-09-09T02:08:13;100672.91;;;16.87;90.34
54172;BME280;40076;52.354;4.970;2022-09-09T02:10:45;100670.56;;;16.85;90.59
54172;BME280;40076;52.354;4.970;2022-09-09T02:13:17;100675.22;;;16.85;90.49
54172;BME280;40076;52.354;4.970;2022-09-09T02:15:47;100676.38;;;16.84;90.69
54172;BME280;40076;52.354;4.970;2022-09-09T02:18:22;100666.97;;;16.81;90.81
54172;BME280;40076;52.354;4.970;2022-09-09T02:20:49;100669.34;;;16.83;90.84
54172;BME280;40076;52.354;4.970;2022-09-09T02:23:17;100666.97;;;16.81;91.07
54172;BME280;40076;52.354;4.970;2022-09-09T02:25:43;100666.53;;;16.79;91.31
54172;BME280;40076;52.354;4.970;2022-09-09T02:28:10;100659.94;;;16.80;91.20
54172;BME280;40076;52.354;4.970;2022-09-09T02:30:38;100661.06;;;16.79;91.19
54172;BME280;40076;52.354;4.970;2022-09-09T02:33:07;100659.50;;;16.78;91.25
54172;BME280;40076;52.354;4.970;2022-09-09T02:35:34;100659.50;;;16.78;91.45
54172;BME280;40076;52.354;4.970;2022-09-09T02:38:04;100670.41;;;16.78;91.53
54172;BME280;40076;52.354;4.970;2022-09-09T02:40:31;100666.13;;;16.77;91.46
54172;BME280;40076;52.354;4.970;2022-09-09T02:42:57;100673.13;;;16.78;91.32
54172;BME280;40076;52.354;4.970;2022-09-09T02:45:25;100664.56;;;16.76;91.50
54172;BME280;40076;52.354;4.970;2022-09-09T02:50:44;100658.66;;;16.74;91.76
54172;BME280;40076;52.354;4.970;2022-09-09T02:53:19;100659.44;;;16.75;91.83
54172;BME280;40076;52.354;4.970;2022-09-09T02:55:57;100655.13;;;16.74;91.46
54172;BME280;40076;52.354;4.970;2022-09-09T02:58:25;100648.09;;;16.73;91.05
54172;BME280;40076;52.354;4.970;2022-09-09T03:00:51;100658.97;;;16.69;91.28
54172;BME280;40076;52.354;4.970;2022-09-09T03:03:18;100655.81;;;16.67;91.14
54172;BME280;40076;52.354;4.970;2022-09-09T03:05:44;100653.88;;;16.68;90.79
54172;BME280;40076;52.354;4.970;2022-09-09T03:08:10;100661.28;;;16.67;90.79
54172;BME280;40076;52.354;4.970;2022-09-09T03:10:35;100659.69;;;16.66;90.68
54172;BME280;40076;52.354;4.970;2022-09-09T03:13:02;100657.75;;;16.67;90.47
54172;BME280;40076;52.354;4.970;2022-09-09T03:15:30;100658.91;;;16.66;90.61
54172;BME280;40076;52.354;4.970;2022-09-09T03:17:56;100657.31;;;16.65;90.55
54172;BME280;40076;52.354;4.970;2022-09-09T03:20:23;100660.41;;;16.63;90.94
54172;BME280;40076;52.354;4.970;2022-09-09T03:22:48;100655.34;;;16.62;90.73
54172;BME280;40076;52.354;4.970;2022-09-09T03:25:14;100649.88;;;16.62;90.59
54172;BME280;40076;52.354;4.970;2022-09-09T03:27:40;100659.66;;;16.63;90.64
54172;BME280;40076;52.354;4.970;2022-09-09T03:30:05;100650.66;;;16.62;90.73
54172;BME280;40076;52.354;4.970;2022-09-09T03:32:31;100656.47;;;16.61;90.75
54172;BME280;40076;52.354;4.970;2022-09-09T03:34:57;100648.31;;;16.61;90.75
54172;BME280;40076;52.354;4.970;2022-09-09T03:37:22;100643.16;;;16.59;90.82
54172;BME280;40076;52.354;4.970;2022-09-09T03:39:48;100647.03;;;16.58;90.73
54172;BME280;40076;52.354;4.970;2022-09-09T03:42:14;100646.25;;;16.57;90.64
54172;BME280;40076;52.354;4.970;2022-09-09T03:44:40;100642.75;;;16.57;90.49
54172;BME280;40076;52.354;4.970;2022-09-09T03:47:07;100640.38;;;16.55;90.74
54172;BME280;40076;52.354;4.970;2022-09-09T03:49:32;100636.81;;;16.51;90.94
54172;BME280;40076;52.354;4.970;2022-09-09T03:51:57;100647.72;;;16.51;90.88
54172;BME280;40076;52.354;4.970;2022-09-09T03:54:25;100634.78;;;16.48;90.89
54172;BME280;40076;52.354;4.970;2022-09-09T03:56:50;100647.63;;;16.48;90.99
54172;BME280;40076;52.354;4.970;2022-09-09T03:59:15;100640.63;;;16.47;90.87
54172;BME280;40076;52.354;4.970;2022-09-09T04:01:41;100635.53;;;16.45;91.16
54172;BME280;40076;52.354;4.970;2022-09-09T04:04:06;100636.69;;;16.44;90.96
54172;BME280;40076;52.354;4.970;2022-09-09T04:06:31;100637.03;;;16.43;90.99
54172;BME280;40076;52.354;4.970;2022-09-09T04:08:56;100629.22;;;16.41;91.24
54172;BME280;40076;52.354;4.970;2022-09-09T04:11:22;100622.97;;;16.41;91.36
54172;BME280;40076;52.354;4.970;2022-09-09T04:13:47;100626.09;;;16.39;91.37
54172;BME280;40076;52.354;4.970;2022-09-09T04:16:13;100622.13;;;16.37;91.62
54172;BME280;40076;52.354;4.970;2022-09-09T04:18:39;100620.56;;;16.36;91.92
54172;BME280;40076;52.354;4.970;2022-09-09T04:21:05;100625.56;;;16.34;91.82
54172;BME280;40076;52.354;4.970;2022-09-09T04:23:31;100626.31;;;16.31;91.95
54172;BME280;40076;52.354;4.970;2022-09-09T04:26:00;100622.38;;;16.28;92.08
54172;BME280;40076;52.354;4.970;2022-09-09T04:28:28;100623.06;;;16.25;92.31
54172;BME280;40076;52.354;4.970;2022-09-09T04:30:54;100615.63;;;16.22;92.36
54172;BME280;40076;52.354;4.970;2022-09-09T04:33:20;100616.78;;;16.21;92.50
54172;BME280;40076;52.354;4.970;2022-09-09T04:35:47;100615.56;;;16.18;92.37
54172;BME280;40076;52.354;4.970;2022-09-09T04:38:13;100613.22;;;16.17;92.79
54172;BME280;40076;52.354;4.970;2022-09-09T04:40:38;100610.84;;;16.15;92.67
54172;BME280;40076;52.354;4.970;2022-09-09T04:43:08;100607.34;;;16.15;92.81
54172;BME280;40076;52.354;4.970;2022-09-09T04:45:33;100603.38;;;16.12;92.86
54172;BME280;40076;52.354;4.970;2022-09-09T04:47:58;100608.03;;;16.12;92.88
54172;BME280;40076;52.354;4.970;2022-09-09T04:50:24;100608.00;;;16.08;93.05
54172;BME280;40076;52.354;4.970;2022-09-09T04:52:50;100610.28;;;16.06;93.05
54172;BME280;40076;52.354;4.970;2022-09-09T04:55:15;100602.09;;;16.06;93.38
54172;BME280;40076;52.354;4.970;2022-09-09T04:57:40;100605.19;;;16.05;93.39
54172;BME280;40076;52.354;4.970;2022-09-09T05:00:07;100601.31;;;16.06;93.27
54172;BME280;40076;52.354;4.970;2022-09-09T05:02:32;100597.38;;;16.03;93.75
54172;BME280;40076;52.354;4.970;2022-09-09T05:04:58;100606.31;;;16.04;93.49
54172;BME280;40076;52.354;4.970;2022-09-09T05:07:24;100596.22;;;16.04;93.49
54172;BME280;40076;52.354;4.970;2022-09-09T05:09:51;100606.31;;;16.04;93.61
54172;BME280;40076;52.354;4.970;2022-09-09T05:12:16;100600.09;;;16.03;93.66
54172;BME280;40076;52.354;4.970;2022-09-09T05:14:43;100595.44;;;16.04;93.59
54172;BME280;40076;52.354;4.970;2022-09-09T05:17:08;100601.22;;;16.02;93.67
54172;BME280;40076;52.354;4.970;2022-09-09T05:19:34;100596.16;;;16.01;93.53
54172;BME280;40076;52.354;4.970;2022-09-09T05:21:59;100593.78;;;15.99;93.65
54172;BME280;40076;52.354;4.970;2022-09-09T05:24:26;100593.78;;;15.99;93.69
54172;BME280;40076;52.354;4.970;2022-09-09T05:26:52;100598.47;;;15.99;93.73
54172;BME280;40076;52.354;4.970;2022-09-09T05:29:17;100600.75;;;15.97;93.56
54172;BME280;40076;52.354;4.970;2022-09-09T05:31:46;100600.69;;;15.93;93.79
54172;BME280;40076;52.354;4.970;2022-09-09T05:34:19;100603.03;;;15.95;93.96
54172;BME280;40076;52.354;4.970;2022-09-09T05:36:46;100592.53;;;15.93;93.54
54172;BME280;40076;52.354;4.970;2022-09-09T05:39:12;100594.03;;;15.91;94.38
54172;BME280;40076;52.354;4.970;2022-09-09T05:41:37;100597.19;;;15.93;94.16
54172;BME280;40076;52.354;4.970;2022-09-09T05:44:03;100589.78;;;15.93;94.20
54172;BME280;40076;52.354;4.970;2022-09-09T05:46:28;100597.19;;;15.93;94.25
54172;BME280;40076;52.354;4.970;2022-09-09T05:48:54;100595.25;;;15.93;94.54
54172;BME280;40076;52.354;4.970;2022-09-09T05:51:21;100592.88;;;15.92;94.81
54172;BME280;40076;52.354;4.970;2022-09-09T05:53:48;100597.97;;;15.93;94.85
54172;BME280;40076;52.354;4.970;2022-09-09T05:56:15;100599.16;;;15.96;94.69
54172;BME280;40076;52.354;4.970;2022-09-09T05:58:43;100603.81;;;15.95;94.76
54172;BME280;40076;52.354;4.970;2022-09-09T06:01:11;100601.47;;;15.94;95.12
54172;BME280;40076;52.354;4.970;2022-09-09T06:03:38;100601.88;;;15.96;95.14
54172;BME280;40076;52.354;4.970;2022-09-09T06:06:09;100605.06;;;15.98;94.77
54172;BME280;40076;52.354;4.970;2022-09-09T06:08:39;100599.97;;;15.96;94.94
54172;BME280;40076;52.354;4.970;2022-09-09T06:11:10;100598.03;;;15.97;95.03
54172;BME280;40076;52.354;4.970;2022-09-09T06:13:36;100600.03;;;16.00;95.30
54172;BME280;40076;52.354;4.970;2022-09-09T06:16:04;100600.47;;;16.02;95.39
54172;BME280;40076;52.354;4.970;2022-09-09T06:18:32;100598.50;;;16.02;95.56
54172;BME280;40076;52.354;4.970;2022-09-09T06:21:03;100601.63;;;16.01;96.05
54172;BME280;40076;52.354;4.970;2022-09-09T06:23:30;100596.22;;;16.04;95.76
54172;BME280;40076;52.354;4.970;2022-09-09T06:26:07;100607.19;;;16.08;95.89
54172;BME280;40076;52.354;4.970;2022-09-09T06:28:33;100608.41;;;16.10;96.29
54172;BME280;40076;52.354;4.970;2022-09-09T06:31:04;100612.69;;;16.11;96.98
54172;BME280;40076;52.354;4.970;2022-09-09T06:33:37;100610.84;;;16.15;96.49
54172;BME280;40076;52.354;4.970;2022-09-09T06:36:04;100604.25;;;16.16;96.63
54172;BME280;40076;52.354;4.970;2022-09-09T06:38:30;100604.66;;;16.18;96.39
54172;BME280;40076;52.354;4.970;2022-09-09T06:40:58;100607.81;;;16.20;96.52
54172;BME280;40076;52.354;4.970;2022-09-09T06:43:25;100602.78;;;16.23;96.31
54172;BME280;40076;52.354;4.970;2022-09-09T06:46:00;100610.63;;;16.24;96.59
54172;BME280;40076;52.354;4.970;2022-09-09T06:48:27;100609.88;;;16.27;96.52
54172;BME280;40076;52.354;4.970;2022-09-09T06:51:17;100609.53;;;16.29;96.79
54172;BME280;40076;52.354;4.970;2022-09-09T06:53:44;100606.47;;;16.34;96.59
54172;BME280;40076;52.354;4.970;2022-09-09T06:58:36;100611.22;;;16.37;96.87
54172;BME280;40076;52.354;4.970;2022-09-09T07:01:05;100606.25;;;16.42;96.47
54172;BME280;40076;52.354;4.970;2022-09-09T07:03:31;100607.91;;;16.47;96.33
54172;BME280;40076;52.354;4.970;2022-09-09T07:05:57;100609.88;;;16.50;96.08
54172;BME280;40076;52.354;4.970;2022-09-09T07:08:23;100591.66;;;16.54;95.93
54172;BME280;40076;52.354;4.970;2022-09-09T07:10:50;100599.53;;;16.59;95.81
54172;BME280;40076;52.354;4.970;2022-09-09T07:13:16;100594.19;;;16.63;95.59
54172;BME280;40076;52.354;4.970;2022-09-09T07:15:41;100598.88;;;16.66;95.16
54172;BME280;40076;52.354;4.970;2022-09-09T07:18:07;100593.84;;;16.68;95.03
54172;BME280;40076;52.354;4.970;2022-09-09T07:20:35;100595.06;;;16.70;95.07
54172;BME280;40076;52.354;4.970;2022-09-09T07:23:00;100592.38;;;16.74;94.94
54172;BME280;40076;52.354;4.970;2022-09-09T07:25:25;100597.53;;;16.79;94.73
54172;BME280;40076;52.354;4.970;2022-09-09T07:27:54;100591.72;;;16.80;94.29
54172;BME280;40076;52.354;4.970;2022-09-09T07:30:20;100594.44;;;16.80;93.93
54172;BME280;40076;52.354;4.970;2022-09-09T07:32:46;100596.03;;;16.81;94.07
54172;BME280;40076;52.354;4.970;2022-09-09T07:35:11;100596.09;;;16.85;94.24
54172;BME280;40076;52.354;4.970;2022-09-09T07:37:37;100598.03;;;16.84;93.96
54172;BME280;40076;52.354;4.970;2022-09-09T07:40:03;100601.53;;;16.85;93.98
54172;BME280;40076;52.354;4.970;2022-09-09T07:42:29;100597.69;;;16.89;94.03
54172;BME280;40076;52.354;4.970;2022-09-09T07:44:55;100600.44;;;16.89;93.83
54172;BME280;40076;52.354;4.970;2022-09-09T07:47:21;100593.03;;;16.90;94.00
54172;BME280;40076;52.354;4.970;2022-09-09T07:49:46;100596.59;;;16.94;93.84
54172;BME280;40076;52.354;4.970;2022-09-09T07:52:14;100602.47;;;16.96;94.07
54172;BME280;40076;52.354;4.970;2022-09-09T07:54:39;100591.63;;;17.00;93.94
54172;BME280;40076;52.354;4.970;2022-09-09T07:57:05;100592.81;;;17.02;93.65
54172;BME280;40076;52.354;4.970;2022-09-09T07:59:30;100594.41;;;17.03;93.43
54172;BME280;40076;52.354;4.970;2022-09-09T08:01:55;100601.78;;;17.03;93.26
54172;BME280;40076;52.354;4.970;2022-09-09T08:04:22;100599.44;;;17.01;93.11
54172;BME280;40076;52.354;4.970;2022-09-09T08:06:51;100602.94;;;17.02;92.96
54172;BME280;40076;52.354;4.970;2022-09-09T08:09:18;100604.59;;;17.06;93.46
54172;BME280;40076;52.354;4.970;2022-09-09T08:11:46;100594.88;;;17.09;92.90
54172;BME280;40076;52.354;4.970;2022-09-09T08:14:12;100594.88;;;17.09;92.70
54172;BME280;40076;52.354;4.970;2022-09-09T08:16:40;100591.81;;;17.14;92.71
54172;BME280;40076;52.354;4.970;2022-09-09T08:19:06;100585.63;;;17.17;92.92
54172;BME280;40076;52.354;4.970;2022-09-09T08:21:32;100597.03;;;17.22;92.73
54172;BME280;40076;52.354;4.970;2022-09-09T08:24:00;100590.81;;;17.25;92.79
54172;BME280;40076;52.354;4.970;2022-09-09T08:26:31;100596.75;;;17.31;92.18
54172;BME280;40076;52.354;4.970;2022-09-09T08:28:58;100585.50;;;17.36;91.46
54172;BME280;40076;52.354;4.970;2022-09-09T08:31:26;100594.50;;;17.40;91.41
54172;BME280;40076;52.354;4.970;2022-09-09T08:33:56;100590.69;;;17.45;91.37
54172;BME280;40076;52.354;4.970;2022-09-09T08:36:24;100595.03;;;17.49;91.21
54172;BME280;40076;52.354;4.970;2022-09-09T08:38:53;100598.97;;;17.52;90.84
54172;BME280;40076;52.354;4.970;2022-09-09T08:43:47;100591.66;;;17.59;90.37
54172;BME280;40076;52.354;4.970;2022-09-09T08:46:23;100597.56;;;17.61;89.88
54172;BME280;40076;52.354;4.970;2022-09-09T08:49:06;100602.28;;;17.64;89.72
54172;BME280;40076;52.354;4.970;2022-09-09T08:51:37;100608.53;;;17.65;89.29
54172;BME280;40076;52.354;4.970;2022-09-09T08:54:04;100610.91;;;17.66;88.99
54172;BME280;40076;52.354;4.970;2022-09-09T08:56:31;100607.38;;;17.66;88.52
54172;BME280;40076;52.354;4.970;2022-09-09T08:58:59;100618.38;;;17.69;88.57
54172;BME280;40076;52.354;4.970;2022-09-09T09:01:39;100608.59;;;17.68;88.53
54172;BME280;40076;52.354;4.970;2022-09-09T09:07:28;100614.84;;;17.69;88.33
54172;BME280;40076;52.354;4.970;2022-09-09T09:12:41;100613.63;;;17.66;87.58
54172;BME280;40076;52.354;4.970;2022-09-09T09:15:18;100612.84;;;17.66;87.66
54172;BME280;40076;52.354;4.970;2022-09-09T09:17:44;100614.00;;;17.65;87.54
54172;BME280;40076;52.354;4.970;2022-09-09T09:20:14;100608.94;;;17.67;87.53
54172;BME280;40076;52.354;4.970;2022-09-09T09:22:51;100610.53;;;17.68;87.21
54172;BME280;40076;52.354;4.970;2022-09-09T09:25:23;100613.63;;;17.66;86.80
54172;BME280;40076;52.354;4.970;2022-09-09T09:30:41;100625.38;;;17.70;86.34
54172;BME280;40076;52.354;4.970;2022-09-09T09:35:41;100621.91;;;17.73;86.34
54172;BME280;40076;52.354;4.970;2022-09-09T09:38:23;100612.97;;;17.77;85.90
54172;BME280;40076;52.354;4.970;2022-09-09T09:40:55;100618.06;;;17.78;85.96
54172;BME280;40076;52.354;4.970;2022-09-09T09:43:40;100621.22;;;17.80;85.68
54172;BME280;40076;52.354;4.970;2022-09-09T09:46:19;100622.78;;;17.81;85.32
54172;BME280;40076;52.354;4.970;2022-09-09T09:48:56;100627.47;;;17.81;84.94
54172;BME280;40076;52.354;4.970;2022-09-09T09:51:22;100625.16;;;17.83;85.17
54172;BME280;40076;52.354;4.970;2022-09-09T09:53:48;100631.78;;;17.85;85.14
54172;BME280;40076;52.354;4.970;2022-09-09T09:56:14;100627.53;;;17.84;84.67
54172;BME280;40076;52.354;4.970;2022-09-09T10:01:27;100617.75;;;17.87;84.99
54172;BME280;40076;52.354;4.970;2022-09-09T10:03:57;100620.97;;;17.92;84.98
54172;BME280;40076;52.354;4.970;2022-09-09T10:06:35;100617.84;;;17.94;85.70
54172;BME280;40076;52.354;4.970;2022-09-09T10:09:03;100623.31;;;17.94;86.65
54172;BME280;40076;52.354;4.970;2022-09-09T10:14:36;100616.31;;;17.96;86.54
54172;BME280;40076;52.354;4.970;2022-09-09T10:17:25;100610.06;;;17.96;86.81
54172;BME280;40076;52.354;4.970;2022-09-09T10:22:28;100621.06;;;18.03;85.58
54172;BME280;40076;52.354;4.970;2022-09-09T10:28:08;100611.78;;;18.11;84.92
54172;BME280;40076;52.354;4.970;2022-09-09T10:36:17;100612.72;;;18.26;84.46
54172;BME280;40076;52.354;4.970;2022-09-09T10:38:46;100619.78;;;18.27;83.99
54172;BME280;40076;52.354;4.970;2022-09-09T10:41:19;100621.34;;;18.28;83.95
54172;BME280;40076;52.354;4.970;2022-09-09T10:44:04;100609.66;;;18.31;84.08
54172;BME280;40076;52.354;4.970;2022-09-09T10:57:40;100609.78;;;18.45;82.88
54172;BME280;40076;52.354;4.970;2022-09-09T11:02:41;100611.47;;;18.57;82.89
54172;BME280;40076;52.354;4.970;2022-09-09T11:05:19;100604.50;;;18.63;82.71
54172;BME280;40076;52.354;4.970;2022-09-09T11:12:56;100592.44;;;18.71;82.02
54172;BME280;40076;52.354;4.970;2022-09-09T11:15:39;100597.19;;;18.77;82.09
54172;BME280;40076;52.354;4.970;2022-09-09T11:18:11;100597.22;;;18.81;81.69
54172;BME280;40076;52.354;4.970;2022-09-09T11:20:39;100608.59;;;18.83;81.42
54172;BME280;40076;52.354;4.970;2022-09-09T11:23:11;100599.59;;;18.82;81.02
54172;BME280;40076;52.354;4.970;2022-09-09T11:25:45;100600.75;;;18.85;80.85
54172;BME280;40076;52.354;4.970;2022-09-09T11:31:28;100585.13;;;18.85;81.13
54172;BME280;40076;52.354;4.970;2022-09-09T11:34:08;100608.97;;;18.85;81.17
54172;BME280;40076;52.354;4.970;2022-09-09T11:36:59;100598.41;;;18.83;81.08
54172;BME280;40076;52.354;4.970;2022-09-09T11:42:18;100592.94;;;18.87;81.20
54172;BME280;40076;52.354;4.970;2022-09-09T11:44:45;100598.00;;;18.85;80.84
54172;BME280;40076;52.354;4.970;2022-09-09T11:49:45;100588.63;;;18.86;81.17
54172;BME280;40076;52.354;4.970;2022-09-09T11:52:22;100606.28;;;18.92;81.54
54172;BME280;40076;52.354;4.970;2022-09-09T11:54:49;100610.25;;;18.98;81.44
54172;BME280;40076;52.354;4.970;2022-09-09T11:57:29;100602.03;;;18.98;81.38
54172;BME280;40076;52.354;4.970;2022-09-09T11:59:56;100602.03;;;18.98;80.84
54172;BME280;40076;52.354;4.970;2022-09-09T12:02:29;100605.53;;;18.92;80.39
54172;BME280;40076;52.354;4.970;2022-09-09T12:05:11;100603.53;;;18.92;80.65
54172;BME280;40076;52.354;4.970;2022-09-09T12:07:41;100605.53;;;18.95;81.20
54172;BME280;40076;52.354;4.970;2022-09-09T12:10:29;100602.03;;;18.98;81.89
54172;BME280;40076;52.354;4.970;2022-09-09T12:13:16;100611.84;;;18.99;82.05
54172;BME280;40076;52.354;4.970;2022-09-09T12:15:53;100599.31;;;19.02;82.31
54172;BME280;40076;52.354;4.970;2022-09-09T12:18:36;100598.94;;;19.03;83.10
54172;BME280;40076;52.354;4.970;2022-09-09T12:24:02;100602.50;;;19.11;83.29
54172;BME280;40076;52.354;4.970;2022-09-09T12:26:47;100604.88;;;19.12;82.93
54172;BME280;40076;52.354;4.970;2022-09-09T12:31:51;100587.69;;;19.22;82.57
54172;BME280;40076;52.354;4.970;2022-09-09T12:34:41;100601.03;;;19.27;82.51
54172;BME280;40076;52.354;4.970;2022-09-09T12:37:16;100589.72;;;19.29;82.56
54172;BME280;40076;52.354;4.970;2022-09-09T12:39:59;100595.56;;;19.27;82.05
54172;BME280;40076;52.354;4.970;2022-09-09T12:42:25;100585.78;;;19.26;81.89
54172;BME280;40076;52.354;4.970;2022-09-09T12:45:02;100587.34;;;19.27;81.82
54172;BME280;40076;52.354;4.970;2022-09-09T12:50:21;100587.38;;;19.35;81.40
54172;BME280;40076;52.354;4.970;2022-09-09T12:52:48;100586.22;;;19.36;81.42
54172;BME280;40076;52.354;4.970;2022-09-09T12:55:21;100590.53;;;19.37;80.95
54172;BME280;40076;52.354;4.970;2022-09-09T12:57:50;100594.03;;;19.34;80.34
54172;BME280;40076;52.354;4.970;2022-09-09T13:00:22;100601.06;;;19.31;80.16
54172;BME280;40076;52.354;4.970;2022-09-09T13:02:52;100599.09;;;19.32;80.27
54172;BME280;40076;52.354;4.970;2022-09-09T13:05:26;100604.19;;;19.33;80.58
54172;BME280;40076;52.354;4.970;2022-09-09T13:07:52;100595.59;;;19.35;81.81
54172;BME280;40076;52.354;4.970;2022-09-09T13:10:29;100601.09;;;19.35;82.16
54172;BME280;40076;52.354;4.970;2022-09-09T13:12:55;100592.81;;;19.31;82.91
54172;BME280;40076;52.354;4.970;2022-09-09T13:15:26;100597.91;;;19.25;84.11
54172;BME280;40076;52.354;4.970;2022-09-09T13:17:58;100607.66;;;19.23;84.87
54172;BME280;40076;52.354;4.970;2022-09-09T13:20:26;100608.06;;;19.21;85.46
54172;BME280;40076;52.354;4.970;2022-09-09T13:22:54;100608.06;;;19.21;86.21
54172;BME280;40076;52.354;4.970;2022-09-09T13:25:23;100599.03;;;19.17;87.04
54172;BME280;40076;52.354;4.970;2022-09-09T13:27:59;100604.09;;;19.15;87.69
54172;BME280;40076;52.354;4.970;2022-09-09T13:30:31;100593.50;;;19.10;88.02
54172;BME280;40076;52.354;4.970;2022-09-09T13:35:28;100596.56;;;19.02;88.65
54172;BME280;40076;52.354;4.970;2022-09-09T13:37:54;100595.41;;;18.99;89.04
54172;BME280;40076;52.354;4.970;2022-09-09T13:40:22;100602.78;;;18.95;89.86
54172;BME280;40076;52.354;4.970;2022-09-09T13:42:52;100598.84;;;18.93;90.55
54172;BME280;40076;52.354;4.970;2022-09-09T13:45:25;100592.19;;;18.90;90.52
54172;BME280;40076;52.354;4.970;2022-09-09T13:47:54;100599.22;;;18.87;90.86
54172;BME280;40076;52.354;4.970;2022-09-09T13:50:27;100595.69;;;18.83;91.31
54172;BME280;40076;52.354;4.970;2022-09-09T13:52:57;100599.59;;;18.82;91.57
54172;BME280;40076;52.354;4.970;2022-09-09T13:55:25;100602.69;;;18.81;92.10
54172;BME280;40076;52.354;4.970;2022-09-09T13:58:00;100601.91;;;18.80;92.54
54172;BME280;40076;52.354;4.970;2022-09-09T14:00:26;100602.69;;;18.81;92.89
54172;BME280;40076;52.354;4.970;2022-09-09T14:02:53;100598.00;;;18.81;93.56
54172;BME280;40076;52.354;4.970;2022-09-09T14:05:20;100601.94;;;18.84;93.83
54172;BME280;40076;52.354;4.970;2022-09-09T14:07:47;100605.44;;;18.81;93.55
54172;BME280;40076;52.354;4.970;2022-09-09T14:10:13;100599.94;;;18.81;93.69
54172;BME280;40076;52.354;4.970;2022-09-09T14:12:39;100595.28;;;18.81;93.77
54172;BME280;40076;52.354;4.970;2022-09-09T14:15:06;100591.00;;;18.84;94.00
54172;BME280;40076;52.354;4.970;2022-09-09T14:17:32;100592.53;;;18.85;93.77
54172;BME280;40076;52.354;4.970;2022-09-09T14:19:59;100587.84;;;18.85;93.74
54172;BME280;40076;52.354;4.970;2022-09-09T14:22:25;100588.63;;;18.86;93.91
54172;BME280;40076;52.354;4.970;2022-09-09T14:24:50;100590.63;;;18.89;93.34
54172;BME280;40076;52.354;4.970;2022-09-09T14:27:18;100591.03;;;18.91;93.21
54172;BME280;40076;52.354;4.970;2022-09-09T14:29:44;100592.59;;;18.92;93.54
54172;BME280;40076;52.354;4.970;2022-09-09T14:32:10;100592.59;;;18.92;92.96
54172;BME280;40076;52.354;4.970;2022-09-09T14:34:36;100589.84;;;18.92;92.35
54172;BME280;40076;52.354;4.970;2022-09-09T14:37:01;100595.38;;;18.96;92.96
54172;BME280;40076;52.354;4.970;2022-09-09T14:39:29;100588.34;;;18.98;92.79
54172;BME280;40076;52.354;4.970;2022-09-09T14:41:55;100580.94;;;19.02;93.04
54172;BME280;40076;52.354;4.970;2022-09-09T14:44:21;100580.19;;;19.09;93.36
54172;BME280;40076;52.354;4.970;2022-09-09T14:46:47;100582.19;;;19.15;93.44